sensor_id;sensor_type;location;lat;lon;timestamp;temperature;humidity
41471;DHT22;27211;51.220;5.308;2023-03-05T00:00:24;7.60;99.90
41471;DHT22;27211;51.220;5.308;2023-03-05T00:02:51;7.40;99.90
41471;DHT22;27211;51.220;5.308;2023-03-05T00:05:17;7.50;99.90
41471;DHT22;27211;51.220;5.308;2023-03-05T00:07:47;7.50;99.90
41471;DHT22;27211;51.220;5.308;2023-03-05T00:10:14;7.60;99.90
41471;DHT22;27211;51.220;5.308;2023-03-05T00:12:41;7.60;99.90
41471;DHT22;27211;51.220;5.308;2023-03-05T00:15:08;7.90;99.90
41471;DHT22;27211;51.220;5.308;2023-03-05T00:17:36;7.80;99.90
41471;DHT22;27211;51.220;5.308;2023-03-05T00:20:02;7.60;99.90
41471;DHT22;27211;51.220;5.308;2023-03-05T00:22:30;7.60;99.90
41471;DHT22;27211;51.220;5.308;2023-03-05T00:24:58;7.30;99.90
41471;DHT22;27211;51.220;5.308;2023-03-05T00:27:25;7.20;99.90
41471;DHT22;27211;51.220;5.308;2023-03-05T00:29:53;7.30;99.90
41471;DHT22;27211;51.220;5.308;2023-03-05T00:32:21;7.50;99.90
41471;DHT22;27211;51.220;5.308;2023-03-05T00:34:49;7.70;99.90
41471;DHT22;27211;51.220;5.308;2023-03-05T00:37:16;7.50;99.90
41471;DHT22;27211;51.220;5.308;2023-03-05T00:39:42;7.40;99.90
41471;DHT22;27211;51.220;5.308;2023-03-05T00:42:11;7.10;99.90
41471;DHT22;27211;51.220;5.308;2023-03-05T00:44:41;7.20;99.90
41471;DHT22;27211;51.220;5.308;2023-03-05T00:47:08;7.10;99.90
41471;DHT22;27211;51.220;5.308;2023-03-05T00:49:34;7.10;99.90
41471;DHT22;27211;51.220;5.308;2023-03-05T00:52:01;7.40;99.90
41471;DHT22;27211;51.220;5.308;2023-03-05T00:54:27;7.50;99.90
41471;DHT22;27211;51.220;5.308;2023-03-05T00:56:53;7.20;99.90
41471;DHT22;27211;51.220;5.308;2023-03-05T00:59:20;7.00;99.90
41471;DHT22;27211;51.220;5.308;2023-03-05T01:01:50;7.00;99.90
41471;DHT22;27211;51.220;5.308;2023-03-05T01:04:20;7.00;99.90
41471;DHT22;27211;51.220;5.308;2023-03-05T01:06:47;7.30;99.90
41471;DHT22;27211;51.220;5.308;2023-03-05T01:09:13;7.20;99.90
41471;DHT22;27211;51.220;5.308;2023-03-05T01:11:40;7.30;99.90
41471;DHT22;27211;51.220;5.308;2023-03-05T01:14:09;7.40;99.90
41471;DHT22;27211;51.220;5.308;2023-03-05T01:16:35;7.20;99.90
41471;DHT22;27211;51.220;5.308;2023-03-05T01:19:06;7.20;99.90
41471;DHT22;27211;51.220;5.308;2023-03-05T01:21:33;7.20;99.90
41471;DHT22;27211;51.220;5.308;2023-03-05T01:23:59;7.10;99.90
41471;DHT22;27211;51.220;5.308;2023-03-05T01:26:26;7.10;99.90
41471;DHT22;27211;51.220;5.308;2023-03-05T01:28:52;7.10;99.90
41471;DHT22;27211;51.220;5.308;2023-03-05T01:31:19;6.90;99.90
41471;DHT22;27211;51.220;5.308;2023-03-05T01:33:45;6.80;99.90
41471;DHT22;27211;51.220;5.308;2023-03-05T01:36:31;6.80;99.90
41471;DHT22;27211;51.220;5.308;2023-03-05T01:38:57;6.90;99.90
41471;DHT22;27211;51.220;5.308;2023-03-05T01:41:24;6.90;99.90
41471;DHT22;27211;51.220;5.308;2023-03-05T01:43:51;7.00;99.90
41471;DHT22;27211;51.220;5.308;2023-03-05T01:48:59;7.20;99.90
41471;DHT22;27211;51.220;5.308;2023-03-05T01:51:28;7.10;99.90
41471;DHT22;27211;51.220;5.308;2023-03-05T01:53:54;7.00;99.90
41471;DHT22;27211;51.220;5.308;2023-03-05T01:56:22;7.00;99.90
41471;DHT22;27211;51.220;5.308;2023-03-05T01:58:49;7.20;99.90
41471;DHT22;27211;51.220;5.308;2023-03-05T02:01:18;7.10;99.90
41471;DHT22;27211;51.220;5.308;2023-03-05T02:03:58;6.90;99.90
41471;DHT22;27211;51.220;5.308;2023-03-05T02:06:27;6.90;99.90
41471;DHT22;27211;51.220;5.308;2023-03-05T02:08:53;6.90;99.90
41471;DHT22;27211;51.220;5.308;2023-03-05T02:11:23;6.80;99.90
41471;DHT22;27211;51.220;5.308;2023-03-05T02:13:49;6.80;99.90
41471;DHT22;27211;51.220;5.308;2023-03-05T02:16:15;6.90;99.90
41471;DHT22;27211;51.220;5.308;2023-03-05T02:18:41;6.80;99.90
41471;DHT22;27211;51.220;5.308;2023-03-05T02:21:11;6.80;99.90
41471;DHT22;27211;51.220;5.308;2023-03-05T02:23:39;6.90;99.90
41471;DHT22;27211;51.220;5.308;2023-03-05T02:26:08;6.80;99.90
41471;DHT22;27211;51.220;5.308;2023-03-05T02:28:51;6.80;99.90
41471;DHT22;27211;51.220;5.308;2023-03-05T02:31:20;6.90;99.90
41471;DHT22;27211;51.220;5.308;2023-03-05T02:33:46;6.80;99.90
41471;DHT22;27211;51.220;5.308;2023-03-05T02:36:33;6.80;99.90
41471;DHT22;27211;51.220;5.308;2023-03-05T02:39:01;6.70;99.90
41471;DHT22;27211;51.220;5.308;2023-03-05T02:41:30;6.80;99.90
41471;DHT22;27211;51.220;5.308;2023-03-05T02:43:57;6.80;99.90
41471;DHT22;27211;51.220;5.308;2023-03-05T02:46:26;7.10;99.90
41471;DHT22;27211;51.220;5.308;2023-03-05T02:48:53;6.90;99.90
41471;DHT22;27211;51.220;5.308;2023-03-05T02:51:28;6.90;99.90
41471;DHT22;27211;51.220;5.308;2023-03-05T02:53:59;6.70;99.90
41471;DHT22;27211;51.220;5.308;2023-03-05T02:56:27;6.60;99.90
41471;DHT22;27211;51.220;5.308;2023-03-05T02:58:53;6.90;99.90
41471;DHT22;27211;51.220;5.308;2023-03-05T03:01:20;6.80;99.90
41471;DHT22;27211;51.220;5.308;2023-03-05T03:03:46;6.70;99.90
41471;DHT22;27211;51.220;5.308;2023-03-05T03:06:32;6.70;99.90
41471;DHT22;27211;51.220;5.308;2023-03-05T03:08:59;6.70;99.90
41471;DHT22;27211;51.220;5.308;2023-03-05T03:11:25;6.60;99.90
41471;DHT22;27211;51.220;5.308;2023-03-05T03:13:54;7.10;99.90
41471;DHT22;27211;51.220;5.308;2023-03-05T03:16:24;7.10;99.90
41471;DHT22;27211;51.220;5.308;2023-03-05T03:18:51;6.70;99.90
41471;DHT22;27211;51.220;5.308;2023-03-05T03:21:26;6.50;99.90
41471;DHT22;27211;51.220;5.308;2023-03-05T03:23:54;6.60;99.90
41471;DHT22;27211;51.220;5.308;2023-03-05T03:26:20;6.70;99.90
41471;DHT22;27211;51.220;5.308;2023-03-05T03:28:46;6.50;99.90
41471;DHT22;27211;51.220;5.308;2023-03-05T03:31:17;6.40;99.90
41471;DHT22;27211;51.220;5.308;2023-03-05T03:33:47;6.30;99.90
41471;DHT22;27211;51.220;5.308;2023-03-05T03:36:34;6.30;99.90
41471;DHT22;27211;51.220;5.308;2023-03-05T03:39:00;6.30;99.90
41471;DHT22;27211;51.220;5.308;2023-03-05T03:41:26;6.20;99.90
41471;DHT22;27211;51.220;5.308;2023-03-05T03:43:53;6.30;99.90
41471;DHT22;27211;51.220;5.308;2023-03-05T03:46:19;6.40;99.90
41471;DHT22;27211;51.220;5.308;2023-03-05T03:48:49;6.30;99.90
41471;DHT22;27211;51.220;5.308;2023-03-05T03:51:24;6.50;99.90
41471;DHT22;27211;51.220;5.308;2023-03-05T03:53:51;6.50;99.90
41471;DHT22;27211;51.220;5.308;2023-03-05T03:56:17;6.30;99.90
41471;DHT22;27211;51.220;5.308;2023-03-05T03:58:43;6.30;99.90
41471;DHT22;27211;51.220;5.308;2023-03-05T04:01:10;6.50;99.90
41471;DHT22;27211;51.220;5.308;2023-03-05T04:03:36;6.50;99.90
41471;DHT22;27211;51.220;5.308;2023-03-05T04:06:02;6.30;99.90
41471;DHT22;27211;51.220;5.308;2023-03-05T04:08:28;6.30;99.90
41471;DHT22;27211;51.220;5.308;2023-03-05T04:10:55;6.10;99.90
41471;DHT22;27211;51.220;5.308;2023-03-05T04:13:21;6.20;99.90
41471;DHT22;27211;51.220;5.308;2023-03-05T04:15:47;6.30;99.90
41471;DHT22;27211;51.220;5.308;2023-03-05T04:18:14;6.10;99.90
41471;DHT22;27211;51.220;5.308;2023-03-05T04:20:40;6.10;99.90
41471;DHT22;27211;51.220;5.308;2023-03-05T04:23:10;6.10;99.90
41471;DHT22;27211;51.220;5.308;2023-03-05T04:25:36;6.10;99.90
41471;DHT22;27211;51.220;5.308;2023-03-05T16:20:10;7.40;99.90
41471;DHT22;27211;51.220;5.308;2023-03-05T16:22:42;7.50;99.90
41471;DHT22;27211;51.220;5.308;2023-03-05T16:25:09;7.50;99.90
41471;DHT22;27211;51.220;5.308;2023-03-05T16:27:36;7.80;99.90
41471;DHT22;27211;51.220;5.308;2023-03-05T16:30:06;7.70;99.90
41471;DHT22;27211;51.220;5.308;2023-03-05T16:32:36;7.70;99.90
41471;DHT22;27211;51.220;5.308;2023-03-05T16:35:02;7.90;99.90
41471;DHT22;27211;51.220;5.308;2023-03-05T16:37:28;8.10;99.90
41471;DHT22;27211;51.220;5.308;2023-03-05T16:39:56;7.80;99.90
41471;DHT22;27211;51.220;5.308;2023-03-05T16:42:23;7.50;99.90
41471;DHT22;27211;51.220;5.308;2023-03-05T16:44:52;7.90;99.90
41471;DHT22;27211;51.220;5.308;2023-03-05T16:47:18;7.90;99.90
41471;DHT22;27211;51.220;5.308;2023-03-05T16:49:46;7.50;99.90
41471;DHT22;27211;51.220;5.308;2023-03-05T16:52:17;7.40;99.90
41471;DHT22;27211;51.220;5.308;2023-03-05T16:54:43;7.20;99.90
41471;DHT22;27211;51.220;5.308;2023-03-05T16:57:10;7.00;99.90
41471;DHT22;27211;51.220;5.308;2023-03-05T16:59:41;6.90;99.90
41471;DHT22;27211;51.220;5.308;2023-03-05T17:02:08;7.00;99.90
41471;DHT22;27211;51.220;5.308;2023-03-05T17:04:36;7.00;99.90
41471;DHT22;27211;51.220;5.308;2023-03-05T17:07:07;7.10;99.90
41471;DHT22;27211;51.220;5.308;2023-03-05T17:09:34;7.10;99.90
41471;DHT22;27211;51.220;5.308;2023-03-05T17:12:00;7.20;99.90
41471;DHT22;27211;51.220;5.308;2023-03-05T17:14:26;7.10;99.90
41471;DHT22;27211;51.220;5.308;2023-03-05T17:16:52;7.10;99.90
41471;DHT22;27211;51.220;5.308;2023-03-05T17:19:19;7.10;99.90
41471;DHT22;27211;51.220;5.308;2023-03-05T17:21:47;7.20;99.90
41471;DHT22;27211;51.220;5.308;2023-03-05T17:24:16;7.20;99.90
41471;DHT22;27211;51.220;5.308;2023-03-05T17:26:43;7.10;99.90
41471;DHT22;27211;51.220;5.308;2023-03-05T17:29:10;7.00;99.90
41471;DHT22;27211;51.220;5.308;2023-03-05T17:31:39;7.00;99.90
41471;DHT22;27211;51.220;5.308;2023-03-05T17:34:05;7.00;99.90
41471;DHT22;27211;51.220;5.308;2023-03-05T17:36:33;7.00;99.90
41471;DHT22;27211;51.220;5.308;2023-03-05T17:39:01;7.00;99.90
41471;DHT22;27211;51.220;5.308;2023-03-05T17:41:28;7.00;99.90
41471;DHT22;27211;51.220;5.308;2023-03-05T17:43:55;6.90;99.90
41471;DHT22;27211;51.220;5.308;2023-03-05T17:46:24;6.90;99.90
41471;DHT22;27211;51.220;5.308;2023-03-05T17:48:51;6.90;99.90
41471;DHT22;27211;51.220;5.308;2023-03-05T17:51:26;7.00;99.90
41471;DHT22;27211;51.220;5.308;2023-03-05T17:53:52;6.80;99.90
41471;DHT22;27211;51.220;5.308;2023-03-05T17:56:19;6.70;99.90
41471;DHT22;27211;51.220;5.308;2023-03-05T17:58:47;6.60;99.90
41471;DHT22;27211;51.220;5.308;2023-03-05T18:04:09;6.40;99.90
41471;DHT22;27211;51.220;5.308;2023-03-05T18:06:35;6.40;99.90
41471;DHT22;27211;51.220;5.308;2023-03-05T18:09:01;6.40;99.90
41471;DHT22;27211;51.220;5.308;2023-03-05T18:11:28;6.40;99.90
41471;DHT22;27211;51.220;5.308;2023-03-05T18:13:57;6.40;99.90
41471;DHT22;27211;51.220;5.308;2023-03-05T18:16:24;6.30;99.90
41471;DHT22;27211;51.220;5.308;2023-03-05T18:18:50;6.20;99.90
41471;DHT22;27211;51.220;5.308;2023-03-05T18:21:28;6.10;99.90
41471;DHT22;27211;51.220;5.308;2023-03-05T18:23:54;6.20;99.90
41471;DHT22;27211;51.220;5.308;2023-03-05T18:26:23;6.10;99.90
41471;DHT22;27211;51.220;5.308;2023-03-05T18:28:50;6.20;99.90
41471;DHT22;27211;51.220;5.308;2023-03-05T18:31:17;6.30;99.90
41471;DHT22;27211;51.220;5.308;2023-03-05T18:33:43;6.30;99.90
41471;DHT22;27211;51.220;5.308;2023-03-05T18:36:10;6.20;99.90
41471;DHT22;27211;51.220;5.308;2023-03-05T18:38:36;6.00;99.90
41471;DHT22;27211;51.220;5.308;2023-03-05T18:41:02;6.10;99.90
41471;DHT22;27211;51.220;5.308;2023-03-05T18:43:29;6.00;99.90
41471;DHT22;27211;51.220;5.308;2023-03-05T18:45:59;6.00;99.90
41471;DHT22;27211;51.220;5.308;2023-03-05T18:48:29;5.90;99.90
41471;DHT22;27211;51.220;5.308;2023-03-05T18:50:55;6.00;99.90
41471;DHT22;27211;51.220;5.308;2023-03-05T18:53:22;6.10;99.90
41471;DHT22;27211;51.220;5.308;2023-03-05T18:55:48;6.10;99.90
41471;DHT22;27211;51.220;5.308;2023-03-05T18:58:14;6.10;99.90
41471;DHT22;27211;51.220;5.308;2023-03-05T19:00:42;6.10;99.90
41471;DHT22;27211;51.220;5.308;2023-03-05T19:03:09;6.10;99.90
41471;DHT22;27211;51.220;5.308;2023-03-05T19:05:39;5.90;99.90
41471;DHT22;27211;51.220;5.308;2023-03-05T19:08:06;5.90;99.90
41471;DHT22;27211;51.220;5.308;2023-03-05T19:10:36;5.90;99.90
41471;DHT22;27211;51.220;5.308;2023-03-05T19:15:46;5.90;99.90
41471;DHT22;27211;51.220;5.308;2023-03-05T19:21:16;5.80;99.90
41471;DHT22;27211;51.220;5.308;2023-03-05T19:23:43;6.00;99.90
41471;DHT22;27211;51.220;5.308;2023-03-05T19:26:09;6.00;99.90
41471;DHT22;27211;51.220;5.308;2023-03-05T19:28:35;5.90;99.90
41471;DHT22;27211;51.220;5.308;2023-03-05T19:31:02;5.90;99.90
41471;DHT22;27211;51.220;5.308;2023-03-05T19:33:29;5.90;99.90
41471;DHT22;27211;51.220;5.308;2023-03-05T19:35:56;6.00;99.90
41471;DHT22;27211;51.220;5.308;2023-03-05T19:38:23;5.90;99.90
41471;DHT22;27211;51.220;5.308;2023-03-05T19:40:49;5.90;99.90
41471;DHT22;27211;51.220;5.308;2023-03-05T19:43:16;5.80;99.90
41471;DHT22;27211;51.220;5.308;2023-03-05T19:45:42;5.80;99.90
41471;DHT22;27211;51.220;5.308;2023-03-05T19:48:12;5.80;99.90
41471;DHT22;27211;51.220;5.308;2023-03-05T19:50:41;5.90;99.90
41471;DHT22;27211;51.220;5.308;2023-03-05T19:53:07;6.10;99.90
41471;DHT22;27211;51.220;5.308;2023-03-05T19:55:37;6.10;99.90
41471;DHT22;27211;51.220;5.308;2023-03-05T19:58:06;6.00;99.90
41471;DHT22;27211;51.220;5.308;2023-03-05T20:00:33;6.00;99.90
41471;DHT22;27211;51.220;5.308;2023-03-05T20:02:59;6.00;99.90
41471;DHT22;27211;51.220;5.308;2023-03-05T20:05:28;5.90;99.90
41471;DHT22;27211;51.220;5.308;2023-03-05T20:07:54;5.80;99.90
41471;DHT22;27211;51.220;5.308;2023-03-05T20:10:21;6.00;99.90
41471;DHT22;27211;51.220;5.308;2023-03-05T20:12:47;6.00;99.90
41471;DHT22;27211;51.220;5.308;2023-03-05T20:15:15;6.10;99.90
41471;DHT22;27211;51.220;5.308;2023-03-05T20:17:44;6.30;99.90
41471;DHT22;27211;51.220;5.308;2023-03-05T20:20:14;6.40;99.90
41471;DHT22;27211;51.220;5.308;2023-03-05T20:22:46;6.50;99.90
41471;DHT22;27211;51.220;5.308;2023-03-05T20:25:13;6.50;99.90
41471;DHT22;27211;51.220;5.308;2023-03-05T20:28:00;6.40;99.90
41471;DHT22;27211;51.220;5.308;2023-03-05T20:30:28;6.20;99.90
41471;DHT22;27211;51.220;5.308;2023-03-05T20:32:54;6.10;99.90
41471;DHT22;27211;51.220;5.308;2023-03-05T20:35:21;5.80;99.90
41471;DHT22;27211;51.220;5.308;2023-03-05T20:40:56;5.70;99.90
41471;DHT22;27211;51.220;5.308;2023-03-05T20:43:43;5.70;99.90
41471;DHT22;27211;51.220;5.308;2023-03-05T20:46:14;5.80;99.90
41471;DHT22;27211;51.220;5.308;2023-03-05T20:48:40;5.80;99.90
41471;DHT22;27211;51.220;5.308;2023-03-05T20:51:10;5.80;99.90
41471;DHT22;27211;51.220;5.308;2023-03-05T20:53:36;5.80;99.90
41471;DHT22;27211;51.220;5.308;2023-03-05T20:56:07;6.00;99.90
41471;DHT22;27211;51.220;5.308;2023-03-05T20:58:36;6.00;99.90
41471;DHT22;27211;51.220;5.308;2023-03-05T21:01:02;6.10;99.90
41471;DHT22;27211;51.220;5.308;2023-03-05T21:03:29;5.80;99.90
41471;DHT22;27211;51.220;5.308;2023-03-05T21:06:00;6.00;99.90
41471;DHT22;27211;51.220;5.308;2023-03-05T21:08:27;6.00;99.90
41471;DHT22;27211;51.220;5.308;2023-03-05T21:10:53;5.90;99.90
41471;DHT22;27211;51.220;5.308;2023-03-05T21:13:23;6.00;99.90
41471;DHT22;27211;51.220;5.308;2023-03-05T21:15:49;5.70;99.90
41471;DHT22;27211;51.220;5.308;2023-03-05T21:18:16;5.50;99.90
41471;DHT22;27211;51.220;5.308;2023-03-05T21:20:42;5.40;99.90
41471;DHT22;27211;51.220;5.308;2023-03-05T21:23:10;5.60;99.90
41471;DHT22;27211;51.220;5.308;2023-03-05T21:25:37;5.70;99.90
41471;DHT22;27211;51.220;5.308;2023-03-05T21:28:08;5.90;99.90
41471;DHT22;27211;51.220;5.308;2023-03-05T21:30:37;5.80;99.90
41471;DHT22;27211;51.220;5.308;2023-03-05T21:33:04;5.70;99.90
41471;DHT22;27211;51.220;5.308;2023-03-05T21:35:35;5.70;99.90
41471;DHT22;27211;51.220;5.308;2023-03-05T21:38:03;5.40;99.90
41471;DHT22;27211;51.220;5.308;2023-03-05T21:40:29;5.40;99.90
41471;DHT22;27211;51.220;5.308;2023-03-05T21:42:56;5.50;99.90
41471;DHT22;27211;51.220;5.308;2023-03-05T21:45:23;5.40;99.90
41471;DHT22;27211;51.220;5.308;2023-03-05T21:47:50;5.40;99.90
41471;DHT22;27211;51.220;5.308;2023-03-05T21:50:37;5.60;99.90
41471;DHT22;27211;51.220;5.308;2023-03-05T21:53:03;5.60;99.90
41471;DHT22;27211;51.220;5.308;2023-03-05T21:55:36;5.60;99.90
41471;DHT22;27211;51.220;5.308;2023-03-05T21:58:20;5.70;99.90
41471;DHT22;27211;51.220;5.308;2023-03-05T22:00:46;5.50;99.90
41471;DHT22;27211;51.220;5.308;2023-03-05T22:03:13;5.50;99.90
41471;DHT22;27211;51.220;5.308;2023-03-05T22:05:41;5.20;99.90
41471;DHT22;27211;51.220;5.308;2023-03-05T22:08:07;5.10;99.90
41471;DHT22;27211;51.220;5.308;2023-03-05T22:10:33;5.20;99.90
41471;DHT22;27211;51.220;5.308;2023-03-05T22:13:03;5.60;99.90
41471;DHT22;27211;51.220;5.308;2023-03-05T22:18:14;5.50;99.90
41471;DHT22;27211;51.220;5.308;2023-03-05T22:20:40;5.40;99.90
41471;DHT22;27211;51.220;5.308;2023-03-05T22:23:07;5.00;99.90
41471;DHT22;27211;51.220;5.308;2023-03-05T22:25:33;5.20;99.90
41471;DHT22;27211;51.220;5.308;2023-03-05T22:28:01;5.40;99.90
41471;DHT22;27211;51.220;5.308;2023-03-05T22:30:28;5.40;99.90
41471;DHT22;27211;51.220;5.308;2023-03-05T22:32:54;5.30;99.90
41471;DHT22;27211;51.220;5.308;2023-03-05T22:35:23;5.30;99.90
41471;DHT22;27211;51.220;5.308;2023-03-05T22:37:49;5.50;99.90
41471;DHT22;27211;51.220;5.308;2023-03-05T22:40:16;5.40;99.90
41471;DHT22;27211;51.220;5.308;2023-03-05T22:42:46;5.40;99.90
41471;DHT22;27211;51.220;5.308;2023-03-05T22:45:17;5.30;99.90
41471;DHT22;27211;51.220;5.308;2023-03-05T22:47:50;5.30;99.90
41471;DHT22;27211;51.220;5.308;2023-03-05T22:50:16;5.50;99.90
41471;DHT22;27211;51.220;5.308;2023-03-05T22:52:44;5.40;99.90
41471;DHT22;27211;51.220;5.308;2023-03-05T22:55:11;5.60;99.90
41471;DHT22;27211;51.220;5.308;2023-03-05T22:57:40;5.50;99.90
41471;DHT22;27211;51.220;5.308;2023-03-05T23:00:11;5.30;99.90
41471;DHT22;27211;51.220;5.308;2023-03-05T23:02:42;5.50;99.90
41471;DHT22;27211;51.220;5.308;2023-03-05T23:05:08;5.40;99.90
41471;DHT22;27211;51.220;5.308;2023-03-05T23:07:38;5.40;99.90
41471;DHT22;27211;51.220;5.308;2023-03-05T23:10:16;5.20;99.90
41471;DHT22;27211;51.220;5.308;2023-03-05T23:12:44;5.40;99.90
41471;DHT22;27211;51.220;5.308;2023-03-05T23:15:12;5.30;99.90
41471;DHT22;27211;51.220;5.308;2023-03-05T23:17:41;5.10;99.90
41471;DHT22;27211;51.220;5.308;2023-03-05T23:20:08;5.50;99.90
41471;DHT22;27211;51.220;5.308;2023-03-05T23:22:36;5.40;99.90
41471;DHT22;27211;51.220;5.308;2023-03-05T23:25:03;5.40;99.90
41471;DHT22;27211;51.220;5.308;2023-03-05T23:27:32;5.30;99.90
41471;DHT22;27211;51.220;5.308;2023-03-05T23:30:12;5.20;99.90
41471;DHT22;27211;51.220;5.308;2023-03-05T23:32:45;4.90;99.90
41471;DHT22;27211;51.220;5.308;2023-03-05T23:35:15;4.70;99.90
41471;DHT22;27211;51.220;5.308;2023-03-05T23:37:44;4.80;99.90
41471;DHT22;27211;51.220;5.308;2023-03-05T23:40:12;4.90;99.90
41471;DHT22;27211;51.220;5.308;2023-03-05T23:42:40;4.90;99.90
41471;DHT22;27211;51.220;5.308;2023-03-05T23:45:08;4.90;99.90
41471;DHT22;27211;51.220;5.308;2023-03-05T23:47:34;4.90;99.90
41471;DHT22;27211;51.220;5.308;2023-03-05T23:50:04;4.90;99.90
41471;DHT22;27211;51.220;5.308;2023-03-05T23:52:31;4.90;99.90
41471;DHT22;27211;51.220;5.308;2023-03-05T23:54:57;5.10;99.90
41471;DHT22;27211;51.220;5.308;2023-03-05T23:57:33;5.00;99.90
